createdAt,value
2019-03-19T00:02:21.805Z,143.40
2019-03-19T00:04:52.393Z,138.00
2019-03-19T00:07:22.860Z,148.80
2019-03-19T00:09:53.685Z,145.00
2019-03-19T00:12:23.812Z,140.40
2019-03-19T00:14:54.318Z,144.00
2019-03-19T00:17:24.527Z,151.60
2019-03-19T00:19:54.807Z,151.20
2019-03-19T00:22:25.758Z,142.80
2019-03-19T00:24:56.499Z,143.00
2019-03-19T00:27:26.601Z,138.20
2019-03-19T00:29:56.912Z,139.60
2019-03-19T00:32:27.137Z,146.00
2019-03-19T00:34:57.329Z,143.00
2019-03-19T00:37:27.453Z,141.80
2019-03-19T00:39:57.930Z,136.40
2019-03-19T00:42:27.978Z,148.20
2019-03-19T00:44:58.408Z,147.00
2019-03-19T00:47:28.575Z,148.20
2019-03-19T00:49:58.622Z,148.80
2019-03-19T00:52:28.630Z,156.00
2019-03-19T00:54:59.726Z,142.80
2019-03-19T00:57:29.745Z,148.40
2019-03-19T00:59:59.978Z,153.40
2019-03-19T01:02:30.278Z,150.80
2019-03-19T01:05:00.791Z,151.20
2019-03-19T01:07:30.864Z,177.25
2019-03-19T01:10:00.920Z,182.50
2019-03-19T01:12:31.798Z,188.50
2019-03-19T01:15:01.890Z,177.75
2019-03-19T01:17:32.660Z,185.75
2019-03-19T01:20:02.903Z,186.50
2019-03-19T01:22:35.013Z,189.00
2019-03-19T01:25:09.436Z,179.25
2019-03-19T01:27:38.915Z,183.75
2019-03-19T01:30:09.647Z,177.25
2019-03-19T01:32:39.973Z,184.00
2019-03-19T01:35:10.223Z,184.75
2019-03-19T01:37:40.484Z,180.50
2019-03-19T01:40:10.772Z,134.80
2019-03-19T01:42:42.452Z,150.40
2019-03-19T01:45:13.108Z,155.20
2019-03-19T01:47:43.070Z,153.60
2019-03-19T01:50:13.223Z,156.00
2019-03-19T01:52:44.335Z,161.50
2019-03-19T01:55:14.629Z,167.75
2019-03-19T01:57:44.727Z,162.75
2019-03-19T02:00:15.088Z,181.50
2019-03-19T02:02:45.473Z,181.75
2019-03-19T02:05:15.694Z,179.25
2019-03-19T02:08:02.160Z,188.75
2019-03-19T02:10:33.631Z,193.00
2019-03-19T02:13:07.223Z,191.50
2019-03-19T02:15:38.491Z,202.00
2019-03-19T02:18:08.685Z,204.50
2019-03-19T02:20:39.410Z,209.75
2019-03-19T02:23:09.520Z,228.00
2019-03-19T02:25:40.561Z,248.00
2019-03-19T02:28:10.705Z,233.50
2019-03-19T02:30:40.816Z,221.50
2019-03-19T02:33:12.025Z,233.00
2019-03-19T02:35:42.540Z,217.25
2019-03-19T02:38:12.974Z,221.00
2019-03-19T02:40:42.942Z,213.00
2019-03-19T02:43:12.803Z,211.25
2019-03-19T02:45:42.619Z,216.50
2019-03-19T02:48:12.415Z,202.00
2019-03-19T02:50:42.147Z,205.50
2019-03-19T02:53:12.050Z,204.00
2019-03-19T02:55:42.057Z,191.75
2019-03-19T02:58:12.239Z,183.75
2019-03-19T03:00:42.118Z,187.75
2019-03-19T03:03:12.214Z,197.50
2019-03-19T03:05:41.971Z,197.75
2019-03-19T03:08:12.237Z,205.75
2019-03-19T03:10:42.038Z,199.75
2019-03-19T03:13:12.087Z,201.50
2019-03-19T03:15:42.002Z,207.50
2019-03-19T03:18:12.152Z,208.25
2019-03-19T03:20:42.120Z,194.50
2019-03-19T03:23:12.472Z,198.50
2019-03-19T03:25:42.956Z,205.75
2019-03-19T03:28:12.979Z,202.25
2019-03-19T03:30:43.238Z,200.50
2019-03-19T03:33:13.669Z,190.75
2019-03-19T03:35:44.016Z,196.25
2019-03-19T03:38:14.447Z,197.75
2019-03-19T03:40:44.417Z,187.75
2019-03-19T03:43:15.754Z,176.25
2019-03-19T03:45:46.301Z,165.60
2019-03-19T03:48:16.639Z,145.40
2019-03-19T03:50:46.685Z,136.40
2019-03-19T03:53:16.798Z,144.40
2019-03-19T03:55:47.208Z,164.60
2019-03-19T03:58:17.568Z,127.40
2019-03-19T04:00:47.677Z,131.80
2019-03-19T04:03:17.815Z,137.00
2019-03-19T04:05:48.166Z,115.20
2019-03-19T04:08:18.578Z,112.80
2019-03-19T04:10:48.596Z,110.60
2019-03-19T04:13:18.912Z,114.60
2019-03-19T04:15:49.310Z,114.20
2019-03-19T04:18:19.473Z,102.00
2019-03-19T04:20:49.571Z,92.60
2019-03-19T04:23:19.720Z,96.40
2019-03-19T04:25:50.104Z,97.80
2019-03-19T04:28:20.083Z,86.00
2019-03-19T04:30:50.431Z,92.40
2019-03-19T04:33:20.393Z,93.00
2019-03-19T04:35:50.647Z,85.80
2019-03-19T04:38:20.702Z,83.40
2019-03-19T04:40:51.209Z,86.00
2019-03-19T04:43:22.585Z,92.20
2019-03-19T04:45:54.080Z,84.60
2019-03-19T04:48:24.698Z,98.80
2019-03-19T04:50:54.657Z,98.80
2019-03-19T04:53:27.464Z,88.80
2019-03-19T04:55:57.956Z,89.20
2019-03-19T04:58:28.282Z,84.80
2019-03-19T05:00:58.303Z,86.80
2019-03-19T05:05:01.511Z,90.00
2019-03-19T05:07:31.505Z,90.20
2019-03-19T05:10:01.804Z,97.40
2019-03-19T05:12:31.950Z,86.40
2019-03-19T05:15:01.965Z,81.00
2019-03-19T05:17:32.234Z,71.60
2019-03-19T05:20:03.476Z,71.00
2019-03-19T05:22:33.495Z,72.60
2019-03-19T05:25:03.593Z,58.60
2019-03-19T05:27:37.638Z,77.80
2019-03-19T05:30:05.664Z,62.60
2019-03-19T05:32:35.996Z,68.40
2019-03-19T05:35:06.144Z,63.00
2019-03-19T05:37:36.503Z,56.60
2019-03-19T05:40:07.156Z,74.40
2019-03-19T05:42:37.348Z,65.80
2019-03-19T05:45:08.204Z,73.20
2019-03-19T05:47:40.488Z,79.60
2019-03-19T05:50:11.566Z,75.00
2019-03-19T05:52:42.120Z,71.40
2019-03-19T05:55:12.369Z,69.40
2019-03-19T05:57:49.623Z,64.60
2019-03-19T06:00:14.611Z,70.80
2019-03-19T06:02:44.945Z,70.80
2019-03-19T06:05:15.635Z,78.00
2019-03-19T06:07:46.025Z,65.40
2019-03-19T06:10:16.419Z,66.00
2019-03-19T06:12:46.573Z,57.60
2019-03-19T06:15:16.762Z,62.80
2019-03-19T06:17:46.973Z,56.20
2019-03-19T06:20:17.542Z,52.20
2019-03-19T06:22:47.671Z,54.00
2019-03-19T06:25:18.013Z,58.80
2019-03-19T06:27:48.157Z,54.00
2019-03-19T06:30:18.059Z,53.80
2019-03-19T06:32:48.101Z,49.40
2019-03-19T06:35:18.451Z,54.60
2019-03-19T06:37:48.784Z,52.80
2019-03-19T06:40:18.903Z,50.60
2019-03-19T06:42:50.078Z,46.80
2019-03-19T06:45:22.628Z,50.20
2019-03-19T06:47:52.137Z,50.20
2019-03-19T06:50:22.900Z,45.20
2019-03-19T06:52:53.336Z,50.00
2019-03-19T06:55:23.515Z,47.20
2019-03-19T06:57:53.745Z,44.20
2019-03-19T07:00:24.153Z,47.00
2019-03-19T07:02:54.217Z,47.00
2019-03-19T07:05:24.901Z,49.20
2019-03-19T07:07:55.219Z,47.20
2019-03-19T07:10:25.635Z,45.20
2019-03-19T07:12:55.686Z,45.60
2019-03-19T07:15:26.121Z,43.60
2019-03-19T07:17:56.389Z,41.80
2019-03-19T07:20:27.012Z,45.80
2019-03-19T07:23:00.222Z,44.80
2019-03-19T07:25:30.699Z,41.00
2019-03-19T07:28:01.853Z,43.80
2019-03-19T07:30:32.250Z,41.60
2019-03-19T07:33:02.566Z,41.60
2019-03-19T07:35:32.929Z,42.20
2019-03-19T07:38:03.167Z,42.40
2019-03-19T07:40:33.713Z,42.20
2019-03-19T07:43:03.795Z,46.00
2019-03-19T07:45:34.236Z,43.20
2019-03-19T07:48:04.763Z,42.40
2019-03-19T07:50:35.469Z,39.40
2019-03-19T07:53:05.628Z,39.40
2019-03-19T07:55:36.053Z,39.60
2019-03-19T07:58:06.333Z,37.40
2019-03-19T08:00:36.543Z,38.40
2019-03-19T08:03:15.530Z,40.60
2019-03-19T08:05:38.602Z,37.00
2019-03-19T08:08:08.951Z,36.80
2019-03-19T08:10:38.969Z,37.00
2019-03-19T08:13:08.921Z,38.00
2019-03-19T08:15:39.230Z,38.00
2019-03-19T08:18:09.742Z,40.80
2019-03-19T08:20:40.467Z,40.60
2019-03-19T08:23:10.947Z,43.00
2019-03-19T08:25:41.157Z,35.20
2019-03-19T08:28:12.237Z,35.40
2019-03-19T08:30:43.677Z,37.60
2019-03-19T08:33:15.998Z,40.20
2019-03-19T08:35:53.589Z,38.60
2019-03-19T08:38:23.856Z,39.80
2019-03-19T08:41:00.287Z,39.00
2019-03-19T08:43:33.008Z,38.00
2019-03-19T08:46:04.789Z,37.80
2019-03-19T08:48:42.628Z,37.20
2019-03-19T08:51:22.598Z,36.80
2019-03-19T08:54:00.035Z,29.20
2019-03-19T08:56:32.737Z,33.00
2019-03-19T08:59:06.381Z,33.20
2019-03-19T09:01:36.633Z,32.20
2019-03-19T09:04:07.618Z,34.00
2019-03-19T09:06:37.675Z,34.40
2019-03-19T09:09:13.000Z,36.40
2019-03-19T09:11:43.826Z,32.60
2019-03-19T09:14:15.621Z,35.40
2019-03-19T09:16:47.737Z,33.80
2019-03-19T09:19:20.005Z,37.00
2019-03-19T09:21:50.225Z,36.60
2019-03-19T09:24:20.721Z,33.20
2019-03-19T09:26:50.963Z,37.20
2019-03-19T09:29:21.247Z,32.20
2019-03-19T09:31:52.494Z,34.00
2019-03-19T09:34:22.733Z,33.60
2019-03-19T09:36:57.281Z,36.00
2019-03-19T09:39:25.506Z,38.00
2019-03-19T09:41:55.825Z,33.00
2019-03-19T09:44:25.962Z,33.80
2019-03-19T09:46:55.991Z,34.20
2019-03-19T09:49:26.776Z,35.60
2019-03-19T09:51:57.170Z,33.00
2019-03-19T09:54:27.848Z,30.20
2019-03-19T09:56:58.136Z,26.20
2019-03-19T09:59:28.408Z,31.20
2019-03-19T10:01:59.188Z,31.80
2019-03-19T10:04:29.526Z,31.00
2019-03-19T10:07:05.944Z,29.80
2019-03-19T10:09:31.502Z,31.20
2019-03-19T10:12:01.752Z,28.60
2019-03-19T10:14:32.000Z,31.00
2019-03-19T10:17:02.469Z,31.00
2019-03-19T10:19:32.991Z,27.80
2019-03-19T10:22:04.209Z,27.40
2019-03-19T10:24:34.378Z,30.40
2019-03-19T10:27:06.028Z,29.40
2019-03-19T10:29:38.536Z,30.80
2019-03-19T10:32:08.080Z,23.20
2019-03-19T10:34:38.334Z,31.00
2019-03-19T10:37:08.365Z,31.60
2019-03-19T10:39:38.238Z,34.40
2019-03-19T10:42:08.209Z,33.40
2019-03-19T10:44:38.520Z,34.00
2019-03-19T10:47:09.587Z,32.00
2019-03-19T10:49:39.734Z,32.00
2019-03-19T10:52:09.933Z,31.00
2019-03-19T10:54:40.430Z,32.00
2019-03-19T10:57:10.476Z,30.80
2019-03-19T10:59:48.868Z,25.20
2019-03-19T11:02:12.674Z,23.00
2019-03-19T11:04:43.491Z,25.40
2019-03-19T11:07:15.249Z,26.20
2019-03-19T11:09:49.635Z,28.20
2019-03-19T11:12:20.213Z,27.60
2019-03-19T11:14:50.565Z,29.40
2019-03-19T11:17:21.276Z,25.60
2019-03-19T11:19:51.212Z,28.40
2019-03-19T11:22:21.460Z,27.40
2019-03-19T11:24:51.994Z,25.80
2019-03-19T11:27:22.397Z,28.40
2019-03-19T11:29:59.726Z,25.20
2019-03-19T11:32:24.608Z,22.20
2019-03-19T11:34:55.199Z,27.60
2019-03-19T11:37:25.389Z,28.00
2019-03-19T11:39:55.781Z,23.80
2019-03-19T11:42:25.904Z,20.20
2019-03-19T11:44:56.189Z,25.40
2019-03-19T11:47:26.759Z,23.80
2019-03-19T11:49:57.062Z,24.60
2019-03-19T11:52:27.168Z,29.80
2019-03-19T11:54:57.293Z,28.20
2019-03-19T11:57:27.657Z,23.80
2019-03-19T11:59:58.031Z,25.40
2019-03-19T12:02:28.338Z,28.00
2019-03-19T12:04:58.622Z,24.40
2019-03-19T12:07:28.792Z,28.00
2019-03-19T12:09:59.087Z,31.00
2019-03-19T12:12:29.311Z,24.20
2019-03-19T12:14:59.511Z,27.60
2019-03-19T12:17:30.444Z,27.80
2019-03-19T12:20:01.875Z,31.00
2019-03-19T12:22:31.988Z,28.60
2019-03-19T12:25:02.399Z,32.40
2019-03-19T12:27:33.179Z,33.60
2019-03-19T12:30:03.325Z,28.80
2019-03-19T12:32:33.509Z,28.40
2019-03-19T12:35:03.993Z,31.80
2019-03-19T12:37:34.453Z,32.60
2019-03-19T12:40:05.015Z,33.00
2019-03-19T12:42:35.809Z,35.40
2019-03-19T12:45:06.849Z,34.00
2019-03-19T12:47:37.175Z,30.60
2019-03-19T12:50:08.052Z,35.00
2019-03-19T12:52:38.211Z,29.20
2019-03-19T12:55:08.628Z,35.20
2019-03-19T12:57:38.988Z,34.60
2019-03-19T13:00:14.279Z,35.20
2019-03-19T13:02:44.334Z,34.00
2019-03-19T13:05:14.934Z,37.60
2019-03-19T13:07:44.909Z,36.60
2019-03-19T13:10:16.272Z,37.20
2019-03-19T13:12:47.197Z,36.80
2019-03-19T13:15:19.256Z,40.20
2019-03-19T13:17:49.353Z,38.20
2019-03-19T13:20:19.570Z,43.20
2019-03-19T13:22:49.605Z,42.40
2019-03-19T13:25:20.126Z,43.60
2019-03-19T13:27:51.242Z,45.20
2019-03-19T13:30:21.803Z,44.80
2019-03-19T13:32:52.018Z,45.40
2019-03-19T13:35:22.389Z,44.00
2019-03-19T13:37:52.747Z,43.40
2019-03-19T13:40:23.433Z,41.40
2019-03-19T13:42:53.934Z,45.20
2019-03-19T13:45:24.272Z,45.00
2019-03-19T13:47:54.739Z,47.20
2019-03-19T13:50:25.070Z,48.20
2019-03-19T13:52:55.102Z,46.60
2019-03-19T13:55:25.101Z,47.00
2019-03-19T13:57:55.618Z,48.60
2019-03-19T14:00:26.053Z,51.80
2019-03-19T14:02:58.105Z,56.00
2019-03-19T14:05:28.859Z,57.80
2019-03-19T14:07:59.057Z,58.20
2019-03-19T14:10:29.190Z,70.60
2019-03-19T14:12:59.885Z,74.20
2019-03-19T14:15:29.921Z,63.60
2019-03-19T14:18:00.372Z,65.20
2019-03-19T14:20:30.531Z,68.20
2019-03-19T14:23:00.635Z,63.60
2019-03-19T14:25:31.116Z,56.40
2019-03-19T14:28:01.473Z,53.60
2019-03-19T14:30:31.994Z,65.60
2019-03-19T14:33:02.328Z,64.40
2019-03-19T14:38:54.209Z,60.20
2019-03-19T14:41:24.893Z,65.80
2019-03-19T14:43:55.107Z,64.20
2019-03-19T14:46:25.344Z,55.40
2019-03-19T14:48:55.684Z,61.80
2019-03-19T14:51:26.163Z,56.40
2019-03-19T14:53:56.518Z,57.80
2019-03-19T14:56:26.827Z,63.00
2019-03-19T14:58:56.871Z,55.00
2019-03-19T15:01:27.304Z,57.60
2019-03-19T15:03:57.481Z,54.40
2019-03-19T15:06:27.625Z,55.40
2019-03-19T15:08:58.068Z,57.60
2019-03-19T15:11:28.127Z,54.20
2019-03-19T15:13:58.052Z,55.00
2019-03-19T15:16:28.378Z,48.80
2019-03-19T15:18:58.588Z,53.20
2019-03-19T15:21:30.016Z,52.80
2019-03-19T15:24:00.195Z,54.00
2019-03-19T15:26:30.506Z,54.60
2019-03-19T15:29:00.627Z,57.00
2019-03-19T15:31:30.551Z,65.20
2019-03-19T15:34:01.172Z,63.80
2019-03-19T15:36:31.725Z,66.80
2019-03-19T15:39:02.163Z,65.80
2019-03-19T15:41:34.419Z,64.80
2019-03-19T15:44:04.777Z,61.60
2019-03-19T15:46:35.246Z,68.20
2019-03-19T15:49:05.547Z,66.20
2019-03-19T15:51:35.841Z,67.00
2019-03-19T15:54:06.305Z,60.20
2019-03-19T15:56:37.449Z,58.20
2019-03-19T15:59:08.861Z,60.60
2019-03-19T16:01:40.553Z,56.20
2019-03-19T16:04:12.875Z,56.80
2019-03-19T16:06:44.535Z,59.40
2019-03-19T16:09:15.091Z,57.20
2019-03-19T16:11:46.200Z,55.80
2019-03-19T16:14:16.357Z,55.60
2019-03-19T16:16:46.847Z,54.40
2019-03-19T16:19:16.948Z,55.20
2019-03-19T16:21:47.681Z,57.20
2019-03-19T16:24:17.781Z,57.00
2019-03-19T16:26:48.269Z,58.60
2019-03-19T16:29:18.624Z,62.60
2019-03-19T16:31:51.185Z,68.60
2019-03-19T16:34:21.594Z,62.00
2019-03-19T16:36:52.461Z,68.80
2019-03-19T16:39:22.548Z,66.80
2019-03-19T16:41:53.110Z,66.80
2019-03-19T16:44:23.552Z,68.60
2019-03-19T16:46:53.921Z,65.20
2019-03-19T16:49:24.229Z,64.20
2019-03-19T16:51:54.576Z,67.80
2019-03-19T16:54:25.051Z,62.20
2019-03-19T16:56:55.187Z,67.60
2019-03-19T16:59:25.165Z,63.60
2019-03-19T17:02:01.750Z,65.80
2019-03-19T17:04:27.259Z,70.00
2019-03-19T17:06:57.381Z,68.60
2019-03-19T17:09:27.446Z,57.20
2019-03-19T17:11:57.857Z,69.40
2019-03-19T17:14:27.942Z,65.40
2019-03-19T17:16:58.243Z,65.80
2019-03-19T17:19:28.431Z,68.00
2019-03-19T17:21:59.013Z,58.80
2019-03-19T17:24:29.600Z,61.20
2019-03-19T17:27:00.045Z,64.80
2019-03-19T17:29:30.261Z,63.20
2019-03-19T17:32:00.703Z,64.80
2019-03-19T17:34:31.146Z,73.80
2019-03-19T17:37:01.596Z,72.00
2019-03-19T17:39:32.408Z,75.20
2019-03-19T17:42:02.513Z,69.00
2019-03-19T17:44:32.750Z,60.00
2019-03-19T17:47:03.123Z,62.60
2019-03-19T17:49:33.494Z,61.60
2019-03-19T17:52:03.567Z,65.80
2019-03-19T17:54:33.732Z,63.00
2019-03-19T17:57:03.938Z,62.40
2019-03-19T17:59:34.310Z,72.20
2019-03-19T18:02:04.966Z,72.00
2019-03-19T18:04:35.355Z,68.40
2019-03-19T18:07:05.431Z,69.80
2019-03-19T18:09:36.071Z,66.00
2019-03-19T18:12:06.316Z,68.00
2019-03-19T18:14:36.612Z,66.60
2019-03-19T18:17:07.071Z,71.80
2019-03-19T18:19:37.287Z,68.40
2019-03-19T18:22:07.699Z,67.40
2019-03-19T18:24:37.714Z,74.60
2019-03-19T18:27:07.980Z,68.80
2019-03-19T18:29:38.130Z,69.60
2019-03-19T18:32:08.606Z,65.00
2019-03-19T18:34:39.142Z,69.80
2019-03-19T18:37:14.534Z,71.80
2019-03-19T18:39:44.851Z,64.80
2019-03-19T18:42:15.040Z,68.20
2019-03-19T18:44:45.290Z,64.80
2019-03-19T18:47:15.649Z,67.20
2019-03-19T18:49:46.142Z,68.60
2019-03-19T18:52:16.442Z,65.20
2019-03-19T18:54:47.022Z,65.40
2019-03-19T18:57:17.261Z,63.80
2019-03-19T18:59:48.013Z,67.40
2019-03-19T19:02:18.375Z,61.00
2019-03-19T19:04:48.705Z,64.80
2019-03-19T19:07:18.768Z,63.60
2019-03-19T19:09:49.203Z,61.00
2019-03-19T19:12:19.503Z,60.40
2019-03-19T19:14:49.828Z,59.60
2019-03-19T19:17:20.069Z,57.80
2019-03-19T19:21:14.755Z,51.80
2019-03-19T19:23:46.415Z,61.40
2019-03-19T19:26:19.103Z,58.20
2019-03-19T19:28:50.978Z,57.60
2019-03-19T19:31:22.851Z,58.60
2019-03-19T19:33:54.586Z,59.80
2019-03-19T19:36:26.100Z,57.80
2019-03-19T19:38:57.849Z,58.60
2019-03-19T19:41:29.516Z,57.00
2019-03-19T19:44:01.611Z,54.00
2019-03-19T19:46:33.309Z,60.00
2019-03-19T19:49:05.129Z,59.80
2019-03-19T19:51:36.726Z,59.40
2019-03-19T19:54:08.629Z,63.00
2019-03-19T19:56:40.177Z,59.40
2019-03-19T19:59:11.858Z,72.40
2019-03-19T20:01:43.471Z,76.60
2019-03-19T20:04:15.537Z,91.20
2019-03-19T20:06:47.321Z,90.20
2019-03-19T20:09:19.010Z,71.60
2019-03-19T20:11:50.766Z,72.20
2019-03-19T20:14:22.479Z,61.80
2019-03-19T20:16:54.383Z,60.20
2019-03-19T20:19:25.970Z,61.00
2019-03-19T20:21:57.444Z,61.00
2019-03-19T20:24:29.385Z,60.20
2019-03-19T20:27:01.153Z,61.00
2019-03-19T20:29:33.158Z,55.80
2019-03-19T20:32:04.866Z,60.20
2019-03-19T20:34:36.902Z,59.80
2019-03-19T20:37:08.398Z,59.20
2019-03-19T20:39:39.783Z,57.80
2019-03-19T20:42:11.560Z,60.80
2019-03-19T20:44:43.120Z,58.00
2019-03-19T20:47:14.619Z,59.20
2019-03-19T20:49:47.837Z,57.80
2019-03-19T20:52:19.482Z,58.20
2019-03-19T20:54:52.416Z,60.80
2019-03-19T20:57:24.036Z,58.20
2019-03-19T20:59:55.644Z,60.60
2019-03-19T21:02:27.438Z,59.00
2019-03-19T21:04:59.106Z,56.80
2019-03-19T21:07:31.055Z,56.60
2019-03-19T21:10:02.994Z,56.60
2019-03-19T21:12:34.917Z,57.60
2019-03-19T21:15:07.881Z,57.20
2019-03-19T21:17:39.884Z,50.80
2019-03-19T21:20:11.634Z,56.80
2019-03-19T21:22:43.631Z,56.40
2019-03-19T21:25:15.640Z,55.80
2019-03-19T21:27:47.374Z,53.00
2019-03-19T21:30:19.290Z,55.20
2019-03-19T21:32:51.025Z,53.80
2019-03-19T21:35:23.044Z,55.40
2019-03-19T21:37:54.696Z,56.00
2019-03-19T21:40:26.486Z,57.80
2019-03-19T21:42:58.442Z,58.20
2019-03-19T21:45:30.358Z,56.20
2019-03-19T21:48:02.189Z,56.60
2019-03-19T21:50:33.898Z,55.80
2019-03-19T21:53:05.487Z,54.20
2019-03-19T21:55:37.143Z,56.00
2019-03-19T21:58:08.892Z,58.00
2019-03-19T22:00:40.921Z,53.00
2019-03-19T22:03:12.461Z,53.60
2019-03-19T22:05:43.981Z,58.20
2019-03-19T22:08:16.226Z,58.00
2019-03-19T22:10:47.956Z,59.20
2019-03-19T22:13:19.589Z,58.40
2019-03-19T22:15:51.403Z,61.20
2019-03-19T22:18:23.235Z,67.00
2019-03-19T22:20:54.927Z,74.60
2019-03-19T22:23:26.798Z,80.20
2019-03-19T22:25:58.588Z,75.20
2019-03-19T22:28:30.138Z,70.40
2019-03-19T22:31:02.114Z,66.60
2019-03-19T22:33:33.915Z,64.00
2019-03-19T22:36:05.572Z,61.60
2019-03-19T22:38:37.096Z,64.00
2019-03-19T22:41:08.800Z,64.20
2019-03-19T22:43:40.557Z,61.40
2019-03-19T22:46:21.282Z,66.60
2019-03-19T22:48:46.205Z,56.00
2019-03-19T22:51:17.952Z,61.40
2019-03-19T22:53:49.790Z,61.00
2019-03-19T22:56:21.999Z,61.00
2019-03-19T22:58:53.975Z,58.00
2019-03-19T23:01:25.733Z,57.00
2019-03-19T23:03:57.495Z,55.00
2019-03-19T23:06:29.381Z,58.20
2019-03-19T23:09:01.394Z,59.60
2019-03-19T23:11:34.966Z,60.60
2019-03-19T23:14:07.025Z,53.00
2019-03-19T23:16:38.801Z,57.00
2019-03-19T23:19:10.875Z,58.80
2019-03-19T23:21:42.715Z,57.40
2019-03-19T23:24:14.550Z,60.40
2019-03-19T23:26:46.190Z,58.20
2019-03-19T23:29:18.325Z,59.60
2019-03-19T23:31:50.013Z,60.80
2019-03-19T23:34:21.767Z,56.40
2019-03-19T23:36:53.775Z,62.00
2019-03-19T23:39:25.969Z,59.40
2019-03-19T23:41:57.749Z,61.00
2019-03-19T23:44:29.562Z,56.40
2019-03-19T23:47:01.475Z,59.80
2019-03-19T23:49:33.444Z,56.20
2019-03-19T23:52:05.101Z,58.60
2019-03-19T23:54:37.918Z,60.40
2019-03-19T23:57:09.766Z,57.60
2019-03-19T23:59:42.387Z,56.00
